sensor_id;sensor_type;location;lat;lon;timestamp;P1;durP1;ratioP1;P2;durP2;ratioP2
72037;SDS011;59900;50.788;12.904;2023-03-01T00:01:05;28.02;;;13.23;;
72037;SDS011;59900;50.788;12.904;2023-03-01T00:03:32;27.10;;;11.88;;
72037;SDS011;59900;50.788;12.904;2023-03-01T00:05:58;27.10;;;11.63;;
72037;SDS011;59900;50.788;12.904;2023-03-01T00:08:25;26.63;;;11.93;;
72037;SDS011;59900;50.788;12.904;2023-03-01T00:10:59;29.75;;;12.35;;
72037;SDS011;59900;50.788;12.904;2023-03-01T00:13:26;27.58;;;11.80;;
72037;SDS011;59900;50.788;12.904;2023-03-01T00:15:51;26.07;;;11.50;;
72037;SDS011;59900;50.788;12.904;2023-03-01T00:18:17;25.77;;;12.07;;
72037;SDS011;59900;50.788;12.904;2023-03-01T00:20:45;27.57;;;11.83;;
72037;SDS011;59900;50.788;12.904;2023-03-01T00:23:14;24.38;;;11.18;;
72037;SDS011;59900;50.788;12.904;2023-03-01T00:25:43;26.60;;;11.90;;
72037;SDS011;59900;50.788;12.904;2023-03-01T00:28:08;25.42;;;12.20;;
72037;SDS011;59900;50.788;12.904;2023-03-01T00:30:34;28.13;;;11.90;;
72037;SDS011;59900;50.788;12.904;2023-03-01T00:32:59;26.53;;;11.63;;
72037;SDS011;59900;50.788;12.904;2023-03-01T00:35:24;26.33;;;10.67;;
72037;SDS011;59900;50.788;12.904;2023-03-01T00:37:49;28.53;;;11.03;;
72037;SDS011;59900;50.788;12.904;2023-03-01T00:40:22;25.02;;;11.05;;
72037;SDS011;59900;50.788;12.904;2023-03-01T00:42:47;26.93;;;11.40;;
72037;SDS011;59900;50.788;12.904;2023-03-01T00:45:13;23.07;;;11.10;;
72037;SDS011;59900;50.788;12.904;2023-03-01T00:47:38;30.20;;;11.37;;
72037;SDS011;59900;50.788;12.904;2023-03-01T00:50:03;24.30;;;11.40;;
72037;SDS011;59900;50.788;12.904;2023-03-01T00:52:29;23.73;;;11.20;;
72037;SDS011;59900;50.788;12.904;2023-03-01T00:54:54;22.20;;;10.30;;
72037;SDS011;59900;50.788;12.904;2023-03-01T00:57:19;25.60;;;10.90;;
72037;SDS011;59900;50.788;12.904;2023-03-01T00:59:45;26.67;;;10.67;;
72037;SDS011;59900;50.788;12.904;2023-03-01T01:02:10;25.43;;;11.27;;
72037;SDS011;59900;50.788;12.904;2023-03-01T01:04:35;20.70;;;10.40;;
72037;SDS011;59900;50.788;12.904;2023-03-01T01:07:00;27.17;;;10.77;;
72037;SDS011;59900;50.788;12.904;2023-03-01T01:09:25;25.07;;;10.83;;
72037;SDS011;59900;50.788;12.904;2023-03-01T01:11:51;26.13;;;10.30;;
72037;SDS011;59900;50.788;12.904;2023-03-01T01:14:17;22.83;;;10.50;;
72037;SDS011;59900;50.788;12.904;2023-03-01T01:16:43;23.15;;;10.32;;
72037;SDS011;59900;50.788;12.904;2023-03-01T01:19:09;26.17;;;10.60;;
72037;SDS011;59900;50.788;12.904;2023-03-01T01:21:35;23.00;;;9.80;;
72037;SDS011;59900;50.788;12.904;2023-03-01T01:24:02;26.27;;;10.53;;
72037;SDS011;59900;50.788;12.904;2023-03-01T01:26:29;29.48;;;11.60;;
72037;SDS011;59900;50.788;12.904;2023-03-01T01:28:56;23.48;;;10.85;;
72037;SDS011;59900;50.788;12.904;2023-03-01T01:31:22;25.90;;;11.52;;
72037;SDS011;59900;50.788;12.904;2023-03-01T01:33:48;23.50;;;11.10;;
72037;SDS011;59900;50.788;12.904;2023-03-01T01:36:14;25.45;;;11.73;;
72037;SDS011;59900;50.788;12.904;2023-03-01T01:38:40;23.57;;;10.50;;
72037;SDS011;59900;50.788;12.904;2023-03-01T01:41:07;25.95;;;11.15;;
72037;SDS011;59900;50.788;12.904;2023-03-01T01:43:36;23.77;;;10.10;;
72037;SDS011;59900;50.788;12.904;2023-03-01T01:46:04;27.67;;;10.82;;
72037;SDS011;59900;50.788;12.904;2023-03-01T01:48:40;25.17;;;10.77;;
72037;SDS011;59900;50.788;12.904;2023-03-01T01:51:10;23.45;;;10.52;;
72037;SDS011;59900;50.788;12.904;2023-03-01T01:53:38;22.77;;;10.40;;
72037;SDS011;59900;50.788;12.904;2023-03-01T01:56:05;21.13;;;10.35;;
72037;SDS011;59900;50.788;12.904;2023-03-01T01:58:32;28.77;;;11.18;;
72037;SDS011;59900;50.788;12.904;2023-03-01T02:00:57;28.50;;;10.80;;
72037;SDS011;59900;50.788;12.904;2023-03-01T02:03:25;25.77;;;11.57;;
72037;SDS011;59900;50.788;12.904;2023-03-01T02:06:00;23.52;;;11.25;;
72037;SDS011;59900;50.788;12.904;2023-03-01T02:08:31;24.27;;;11.63;;
72037;SDS011;59900;50.788;12.904;2023-03-01T02:10:59;20.05;;;9.95;;
72037;SDS011;59900;50.788;12.904;2023-03-01T02:13:26;23.83;;;10.70;;
72037;SDS011;59900;50.788;12.904;2023-03-01T02:15:52;25.70;;;10.57;;
72037;SDS011;59900;50.788;12.904;2023-03-01T02:18:18;22.10;;;10.30;;
72037;SDS011;59900;50.788;12.904;2023-03-01T02:21:05;24.63;;;10.70;;
72037;SDS011;59900;50.788;12.904;2023-03-01T02:23:35;24.63;;;10.30;;
72037;SDS011;59900;50.788;12.904;2023-03-01T02:26:03;24.60;;;11.55;;
72037;SDS011;59900;50.788;12.904;2023-03-01T02:28:40;21.77;;;10.40;;
72037;SDS011;59900;50.788;12.904;2023-03-01T02:31:08;25.40;;;10.52;;
72037;SDS011;59900;50.788;12.904;2023-03-01T02:33:53;22.90;;;9.50;;
72037;SDS011;59900;50.788;12.904;2023-03-01T02:36:20;25.48;;;10.43;;
72037;SDS011;59900;50.788;12.904;2023-03-01T02:38:48;22.40;;;10.77;;
72037;SDS011;59900;50.788;12.904;2023-03-01T02:41:16;21.60;;;9.85;;
72037;SDS011;59900;50.788;12.904;2023-03-01T02:43:44;23.00;;;10.68;;
72037;SDS011;59900;50.788;12.904;2023-03-01T02:46:14;25.10;;;9.83;;
72037;SDS011;59900;50.788;12.904;2023-03-01T02:48:57;23.05;;;9.98;;
72037;SDS011;59900;50.788;12.904;2023-03-01T02:54:15;23.60;;;9.52;;
72037;SDS011;59900;50.788;12.904;2023-03-01T02:56:43;27.80;;;11.48;;
72037;SDS011;59900;50.788;12.904;2023-03-01T02:59:13;23.33;;;9.87;;
72037;SDS011;59900;50.788;12.904;2023-03-01T03:01:41;24.67;;;9.80;;
72037;SDS011;59900;50.788;12.904;2023-03-01T03:04:08;23.83;;;10.07;;
72037;SDS011;59900;50.788;12.904;2023-03-01T03:06:35;22.52;;;10.32;;
72037;SDS011;59900;50.788;12.904;2023-03-01T03:09:00;23.67;;;10.63;;
72037;SDS011;59900;50.788;12.904;2023-03-01T03:11:26;26.93;;;10.63;;
72037;SDS011;59900;50.788;12.904;2023-03-01T03:13:51;26.93;;;11.67;;
72037;SDS011;59900;50.788;12.904;2023-03-01T03:16:17;24.25;;;9.88;;
72037;SDS011;59900;50.788;12.904;2023-03-01T03:18:43;21.43;;;9.53;;
72037;SDS011;59900;50.788;12.904;2023-03-01T03:21:09;24.77;;;10.98;;
72037;SDS011;59900;50.788;12.904;2023-03-01T03:23:36;22.60;;;10.90;;
72037;SDS011;59900;50.788;12.904;2023-03-01T03:26:02;27.60;;;10.20;;
72037;SDS011;59900;50.788;12.904;2023-03-01T03:28:29;26.67;;;11.70;;
72037;SDS011;59900;50.788;12.904;2023-03-01T03:30:55;27.52;;;10.90;;
72037;SDS011;59900;50.788;12.904;2023-03-01T03:33:20;21.43;;;10.47;;
72037;SDS011;59900;50.788;12.904;2023-03-01T03:35:47;23.87;;;10.67;;
72037;SDS011;59900;50.788;12.904;2023-03-01T03:38:14;24.05;;;10.75;;
72037;SDS011;59900;50.788;12.904;2023-03-01T03:43:13;21.85;;;10.20;;
72037;SDS011;59900;50.788;12.904;2023-03-01T03:45:41;22.00;;;9.55;;
72037;SDS011;59900;50.788;12.904;2023-03-01T03:48:09;23.42;;;10.25;;
72037;SDS011;59900;50.788;12.904;2023-03-01T03:50:35;22.23;;;9.97;;
72037;SDS011;59900;50.788;12.904;2023-03-01T03:53:02;19.25;;;9.82;;
72037;SDS011;59900;50.788;12.904;2023-03-01T03:55:29;23.80;;;10.65;;
72037;SDS011;59900;50.788;12.904;2023-03-01T03:57:56;25.80;;;11.43;;
72037;SDS011;59900;50.788;12.904;2023-03-01T04:00:23;26.58;;;11.10;;
72037;SDS011;59900;50.788;12.904;2023-03-01T04:02:48;22.10;;;10.13;;
72037;SDS011;59900;50.788;12.904;2023-03-01T04:05:15;23.98;;;9.48;;
72037;SDS011;59900;50.788;12.904;2023-03-01T04:07:42;27.48;;;10.48;;
72037;SDS011;59900;50.788;12.904;2023-03-01T04:10:13;23.55;;;10.70;;
72037;SDS011;59900;50.788;12.904;2023-03-01T04:12:41;26.10;;;11.32;;
72037;SDS011;59900;50.788;12.904;2023-03-01T04:15:08;23.00;;;10.73;;
72037;SDS011;59900;50.788;12.904;2023-03-01T04:17:41;22.77;;;11.27;;
72037;SDS011;59900;50.788;12.904;2023-03-01T04:20:08;23.52;;;9.90;;
72037;SDS011;59900;50.788;12.904;2023-03-01T04:22:39;23.48;;;10.35;;
72037;SDS011;59900;50.788;12.904;2023-03-01T04:25:05;22.73;;;9.90;;
72037;SDS011;59900;50.788;12.904;2023-03-01T04:27:31;19.80;;;9.93;;
72037;SDS011;59900;50.788;12.904;2023-03-01T04:29:57;21.20;;;9.57;;
72037;SDS011;59900;50.788;12.904;2023-03-01T04:32:23;25.10;;;9.77;;
72037;SDS011;59900;50.788;12.904;2023-03-01T04:34:48;23.57;;;9.23;;
72037;SDS011;59900;50.788;12.904;2023-03-01T04:37:13;21.63;;;9.47;;
72037;SDS011;59900;50.788;12.904;2023-03-01T04:39:40;23.70;;;9.93;;
72037;SDS011;59900;50.788;12.904;2023-03-01T04:42:10;19.93;;;9.43;;
72037;SDS011;59900;50.788;12.904;2023-03-01T04:44:39;24.25;;;10.45;;
72037;SDS011;59900;50.788;12.904;2023-03-01T04:47:04;24.83;;;11.37;;
72037;SDS011;59900;50.788;12.904;2023-03-01T04:49:29;23.50;;;9.73;;
72037;SDS011;59900;50.788;12.904;2023-03-01T04:51:54;26.30;;;11.40;;
72037;SDS011;59900;50.788;12.904;2023-03-01T04:54:20;27.40;;;11.73;;
72037;SDS011;59900;50.788;12.904;2023-03-01T04:56:45;30.13;;;12.00;;
72037;SDS011;59900;50.788;12.904;2023-03-01T04:59:10;25.13;;;11.30;;
72037;SDS011;59900;50.788;12.904;2023-03-01T05:01:37;27.90;;;11.03;;
72037;SDS011;59900;50.788;12.904;2023-03-01T05:04:03;26.25;;;9.90;;
72037;SDS011;59900;50.788;12.904;2023-03-01T05:06:30;25.23;;;9.10;;
72037;SDS011;59900;50.788;12.904;2023-03-01T05:08:56;21.67;;;9.60;;
72037;SDS011;59900;50.788;12.904;2023-03-01T05:11:21;21.73;;;9.93;;
72037;SDS011;59900;50.788;12.904;2023-03-01T05:13:46;22.57;;;10.47;;
72037;SDS011;59900;50.788;12.904;2023-03-01T05:16:12;23.58;;;9.80;;
72037;SDS011;59900;50.788;12.904;2023-03-01T05:18:37;22.90;;;10.00;;
72037;SDS011;59900;50.788;12.904;2023-03-01T05:21:10;23.33;;;9.75;;
72037;SDS011;59900;50.788;12.904;2023-03-01T05:23:37;20.50;;;9.73;;
72037;SDS011;59900;50.788;12.904;2023-03-01T05:26:03;24.60;;;10.13;;
72037;SDS011;59900;50.788;12.904;2023-03-01T05:28:31;21.83;;;10.23;;
72037;SDS011;59900;50.788;12.904;2023-03-01T05:30:56;23.87;;;9.17;;
72037;SDS011;59900;50.788;12.904;2023-03-01T05:33:22;21.98;;;9.38;;
72037;SDS011;59900;50.788;12.904;2023-03-01T05:35:49;21.47;;;10.10;;
72037;SDS011;59900;50.788;12.904;2023-03-01T05:38:16;21.73;;;9.95;;
72037;SDS011;59900;50.788;12.904;2023-03-01T05:40:42;21.55;;;9.48;;
72037;SDS011;59900;50.788;12.904;2023-03-01T05:43:09;21.20;;;10.35;;
72037;SDS011;59900;50.788;12.904;2023-03-01T05:45:36;24.85;;;10.57;;
72037;SDS011;59900;50.788;12.904;2023-03-01T05:48:03;22.23;;;10.63;;
72037;SDS011;59900;50.788;12.904;2023-03-01T05:50:31;21.98;;;10.07;;
72037;SDS011;59900;50.788;12.904;2023-03-01T05:52:59;27.35;;;9.80;;
72037;SDS011;59900;50.788;12.904;2023-03-01T05:55:46;21.88;;;9.98;;
72037;SDS011;59900;50.788;12.904;2023-03-01T05:58:13;23.75;;;10.95;;
72037;SDS011;59900;50.788;12.904;2023-03-01T06:00:42;24.00;;;10.57;;
72037;SDS011;59900;50.788;12.904;2023-03-01T06:03:09;21.55;;;10.38;;
72037;SDS011;59900;50.788;12.904;2023-03-01T06:05:35;20.95;;;9.48;;
72037;SDS011;59900;50.788;12.904;2023-03-01T06:08:01;23.93;;;11.63;;
72037;SDS011;59900;50.788;12.904;2023-03-01T06:10:27;19.08;;;9.15;;
72037;SDS011;59900;50.788;12.904;2023-03-01T06:12:53;24.43;;;9.77;;
72037;SDS011;59900;50.788;12.904;2023-03-01T06:15:19;25.00;;;10.48;;
72037;SDS011;59900;50.788;12.904;2023-03-01T06:17:44;25.73;;;10.43;;
72037;SDS011;59900;50.788;12.904;2023-03-01T06:20:12;22.73;;;10.70;;
72037;SDS011;59900;50.788;12.904;2023-03-01T06:22:38;26.77;;;11.27;;
72037;SDS011;59900;50.788;12.904;2023-03-01T06:25:03;30.10;;;12.33;;
72037;SDS011;59900;50.788;12.904;2023-03-01T06:27:29;30.92;;;12.48;;
72037;SDS011;59900;50.788;12.904;2023-03-01T06:29:54;29.53;;;12.43;;
72037;SDS011;59900;50.788;12.904;2023-03-01T06:32:20;26.60;;;11.50;;
72037;SDS011;59900;50.788;12.904;2023-03-01T06:34:45;27.80;;;11.70;;
72037;SDS011;59900;50.788;12.904;2023-03-01T06:37:10;30.27;;;12.77;;
72037;SDS011;59900;50.788;12.904;2023-03-01T06:39:36;29.58;;;13.10;;
72037;SDS011;59900;50.788;12.904;2023-03-01T06:42:01;29.53;;;12.80;;
72037;SDS011;59900;50.788;12.904;2023-03-01T06:44:26;44.23;;;13.33;;
72037;SDS011;59900;50.788;12.904;2023-03-01T06:46:52;29.33;;;11.23;;
72037;SDS011;59900;50.788;12.904;2023-03-01T06:49:17;28.60;;;12.00;;
72037;SDS011;59900;50.788;12.904;2023-03-01T06:51:42;28.97;;;12.33;;
72037;SDS011;59900;50.788;12.904;2023-03-01T06:54:09;23.92;;;12.60;;
72037;SDS011;59900;50.788;12.904;2023-03-01T06:56:34;25.77;;;11.23;;
72037;SDS011;59900;50.788;12.904;2023-03-01T06:59:00;26.33;;;11.27;;
72037;SDS011;59900;50.788;12.904;2023-03-01T07:01:25;26.80;;;11.33;;
72037;SDS011;59900;50.788;12.904;2023-03-01T07:03:50;22.17;;;9.77;;
72037;SDS011;59900;50.788;12.904;2023-03-01T07:06:15;25.10;;;11.43;;
72037;SDS011;59900;50.788;12.904;2023-03-01T07:08:42;25.65;;;10.60;;
72037;SDS011;59900;50.788;12.904;2023-03-01T07:11:07;26.00;;;11.50;;
72037;SDS011;59900;50.788;12.904;2023-03-01T07:13:33;29.10;;;10.90;;
72037;SDS011;59900;50.788;12.904;2023-03-01T07:15:58;24.27;;;11.20;;
72037;SDS011;59900;50.788;12.904;2023-03-01T07:18:23;25.87;;;11.50;;
72037;SDS011;59900;50.788;12.904;2023-03-01T07:20:49;23.93;;;10.77;;
72037;SDS011;59900;50.788;12.904;2023-03-01T07:23:14;26.58;;;10.57;;
72037;SDS011;59900;50.788;12.904;2023-03-01T07:25:40;24.17;;;10.60;;
72037;SDS011;59900;50.788;12.904;2023-03-01T07:28:05;29.23;;;11.40;;
72037;SDS011;59900;50.788;12.904;2023-03-01T07:30:30;24.17;;;10.27;;
72037;SDS011;59900;50.788;12.904;2023-03-01T07:32:57;21.60;;;11.25;;
72037;SDS011;59900;50.788;12.904;2023-03-01T07:35:23;23.63;;;10.30;;
72037;SDS011;59900;50.788;12.904;2023-03-01T07:37:50;26.10;;;11.07;;
72037;SDS011;59900;50.788;12.904;2023-03-01T07:40:15;25.80;;;11.53;;
72037;SDS011;59900;50.788;12.904;2023-03-01T07:42:41;23.27;;;10.47;;
72037;SDS011;59900;50.788;12.904;2023-03-01T07:45:06;23.83;;;11.33;;
72037;SDS011;59900;50.788;12.904;2023-03-01T07:47:32;27.87;;;11.23;;
72037;SDS011;59900;50.788;12.904;2023-03-01T07:49:57;21.50;;;10.53;;
72037;SDS011;59900;50.788;12.904;2023-03-01T07:52:23;24.90;;;10.97;;
72037;SDS011;59900;50.788;12.904;2023-03-01T07:54:48;22.10;;;10.60;;
72037;SDS011;59900;50.788;12.904;2023-03-01T07:57:13;24.77;;;9.80;;
72037;SDS011;59900;50.788;12.904;2023-03-01T07:59:39;21.10;;;10.60;;
72037;SDS011;59900;50.788;12.904;2023-03-01T08:02:04;26.10;;;10.50;;
72037;SDS011;59900;50.788;12.904;2023-03-01T08:04:29;24.13;;;9.83;;
72037;SDS011;59900;50.788;12.904;2023-03-01T08:06:54;25.67;;;10.57;;
72037;SDS011;59900;50.788;12.904;2023-03-01T08:09:20;25.83;;;10.47;;
72037;SDS011;59900;50.788;12.904;2023-03-01T08:11:45;21.02;;;9.52;;
72037;SDS011;59900;50.788;12.904;2023-03-01T08:14:11;24.73;;;9.83;;
72037;SDS011;59900;50.788;12.904;2023-03-01T08:16:36;27.83;;;10.83;;
72037;SDS011;59900;50.788;12.904;2023-03-01T08:19:05;25.57;;;10.43;;
72037;SDS011;59900;50.788;12.904;2023-03-01T08:21:31;24.08;;;9.48;;
72037;SDS011;59900;50.788;12.904;2023-03-01T08:23:59;20.83;;;9.30;;
72037;SDS011;59900;50.788;12.904;2023-03-01T08:26:24;24.93;;;10.50;;
72037;SDS011;59900;50.788;12.904;2023-03-01T08:28:50;22.50;;;9.37;;
72037;SDS011;59900;50.788;12.904;2023-03-01T08:31:19;23.10;;;9.70;;
72037;SDS011;59900;50.788;12.904;2023-03-01T08:33:45;25.80;;;9.90;;
72037;SDS011;59900;50.788;12.904;2023-03-01T08:36:15;21.92;;;10.00;;
72037;SDS011;59900;50.788;12.904;2023-03-01T08:38:41;26.10;;;10.30;;
72037;SDS011;59900;50.788;12.904;2023-03-01T08:41:06;20.97;;;9.47;;
72037;SDS011;59900;50.788;12.904;2023-03-01T08:43:32;23.60;;;10.03;;
72037;SDS011;59900;50.788;12.904;2023-03-01T08:45:57;22.85;;;9.30;;
72037;SDS011;59900;50.788;12.904;2023-03-01T08:48:22;17.70;;;8.57;;
72037;SDS011;59900;50.788;12.904;2023-03-01T08:50:48;23.00;;;9.87;;
72037;SDS011;59900;50.788;12.904;2023-03-01T08:53:13;20.90;;;9.23;;
72037;SDS011;59900;50.788;12.904;2023-03-01T08:55:38;20.07;;;9.73;;
72037;SDS011;59900;50.788;12.904;2023-03-01T08:58:03;24.77;;;10.30;;
72037;SDS011;59900;50.788;12.904;2023-03-01T09:00:29;25.27;;;10.17;;
72037;SDS011;59900;50.788;12.904;2023-03-01T09:02:54;24.37;;;9.70;;
72037;SDS011;59900;50.788;12.904;2023-03-01T09:05:19;20.50;;;10.03;;
72037;SDS011;59900;50.788;12.904;2023-03-01T09:07:44;23.17;;;10.57;;
72037;SDS011;59900;50.788;12.904;2023-03-01T09:10:10;25.93;;;9.57;;
72037;SDS011;59900;50.788;12.904;2023-03-01T09:12:35;21.30;;;9.63;;
72037;SDS011;59900;50.788;12.904;2023-03-01T09:15:00;23.93;;;9.43;;
72037;SDS011;59900;50.788;12.904;2023-03-01T09:17:26;23.50;;;10.70;;
72037;SDS011;59900;50.788;12.904;2023-03-01T09:19:51;22.30;;;9.83;;
72037;SDS011;59900;50.788;12.904;2023-03-01T09:22:16;19.80;;;9.47;;
72037;SDS011;59900;50.788;12.904;2023-03-01T09:24:41;26.07;;;9.70;;
72037;SDS011;59900;50.788;12.904;2023-03-01T09:27:07;21.83;;;10.17;;
72037;SDS011;59900;50.788;12.904;2023-03-01T09:29:33;18.40;;;9.00;;
72037;SDS011;59900;50.788;12.904;2023-03-01T09:32:00;23.27;;;9.77;;
72037;SDS011;59900;50.788;12.904;2023-03-01T09:34:25;23.93;;;9.63;;
72037;SDS011;59900;50.788;12.904;2023-03-01T09:36:51;26.58;;;10.50;;
72037;SDS011;59900;50.788;12.904;2023-03-01T09:39:16;21.90;;;8.70;;
72037;SDS011;59900;50.788;12.904;2023-03-01T09:44:27;24.40;;;10.43;;
72037;SDS011;59900;50.788;12.904;2023-03-01T09:46:57;23.70;;;10.43;;
72037;SDS011;59900;50.788;12.904;2023-03-01T09:49:25;22.25;;;10.05;;
72037;SDS011;59900;50.788;12.904;2023-03-01T09:54:28;18.00;;;9.10;;
72037;SDS011;59900;50.788;12.904;2023-03-01T09:56:59;23.77;;;9.70;;
72037;SDS011;59900;50.788;12.904;2023-03-01T10:02:36;24.35;;;9.52;;
72037;SDS011;59900;50.788;12.904;2023-03-01T10:07:48;23.45;;;9.05;;
72037;SDS011;59900;50.788;12.904;2023-03-01T10:10:40;19.92;;;9.13;;
72037;SDS011;59900;50.788;12.904;2023-03-01T10:16:01;45.97;;;19.08;;
72037;SDS011;59900;50.788;12.904;2023-03-01T10:18:35;25.30;;;9.93;;
72037;SDS011;59900;50.788;12.904;2023-03-01T10:21:05;22.23;;;9.32;;
72037;SDS011;59900;50.788;12.904;2023-03-01T10:23:39;24.77;;;9.68;;
72037;SDS011;59900;50.788;12.904;2023-03-01T10:26:26;22.10;;;9.73;;
72037;SDS011;59900;50.788;12.904;2023-03-01T10:31:35;26.63;;;9.80;;
72037;SDS011;59900;50.788;12.904;2023-03-01T10:34:17;24.75;;;9.73;;
72037;SDS011;59900;50.788;12.904;2023-03-01T10:36:45;24.35;;;9.85;;
72037;SDS011;59900;50.788;12.904;2023-03-01T10:39:15;21.35;;;9.68;;
72037;SDS011;59900;50.788;12.904;2023-03-01T10:41:52;21.13;;;9.33;;
72037;SDS011;59900;50.788;12.904;2023-03-01T10:44:35;22.95;;;10.57;;
72037;SDS011;59900;50.788;12.904;2023-03-01T10:47:08;23.42;;;9.88;;
72037;SDS011;59900;50.788;12.904;2023-03-01T10:49:38;23.75;;;10.02;;
72037;SDS011;59900;50.788;12.904;2023-03-01T10:52:19;23.80;;;10.67;;
72037;SDS011;59900;50.788;12.904;2023-03-01T10:54:58;22.48;;;9.57;;
72037;SDS011;59900;50.788;12.904;2023-03-01T10:57:43;24.40;;;10.52;;
72037;SDS011;59900;50.788;12.904;2023-03-01T11:02:49;35.40;;;15.30;;
72037;SDS011;59900;50.788;12.904;2023-03-01T11:05:24;26.17;;;11.85;;
72037;SDS011;59900;50.788;12.904;2023-03-01T11:07:54;23.70;;;9.85;;
72037;SDS011;59900;50.788;12.904;2023-03-01T11:10:28;21.85;;;10.15;;
72037;SDS011;59900;50.788;12.904;2023-03-01T11:16:00;22.13;;;9.80;;
72037;SDS011;59900;50.788;12.904;2023-03-01T11:18:27;22.80;;;10.00;;
72037;SDS011;59900;50.788;12.904;2023-03-01T11:20:55;22.73;;;10.27;;
72037;SDS011;59900;50.788;12.904;2023-03-01T11:23:23;23.38;;;11.02;;
72037;SDS011;59900;50.788;12.904;2023-03-01T11:25:54;20.90;;;9.40;;
72037;SDS011;59900;50.788;12.904;2023-03-01T11:28:21;26.45;;;10.20;;
72037;SDS011;59900;50.788;12.904;2023-03-01T11:36:16;21.60;;;9.85;;
72037;SDS011;59900;50.788;12.904;2023-03-01T11:38:51;25.13;;;10.87;;
72037;SDS011;59900;50.788;12.904;2023-03-01T11:41:19;23.00;;;10.77;;
72037;SDS011;59900;50.788;12.904;2023-03-01T11:43:51;23.08;;;10.73;;
72037;SDS011;59900;50.788;12.904;2023-03-01T11:52:08;19.97;;;9.40;;
72037;SDS011;59900;50.788;12.904;2023-03-01T11:54:57;22.75;;;11.07;;
72037;SDS011;59900;50.788;12.904;2023-03-01T11:57:55;23.15;;;10.07;;
72037;SDS011;59900;50.788;12.904;2023-03-01T12:01:00;26.05;;;11.85;;
72037;SDS011;59900;50.788;12.904;2023-03-01T12:06:33;24.17;;;11.37;;
72037;SDS011;59900;50.788;12.904;2023-03-01T12:09:36;26.65;;;11.80;;
72037;SDS011;59900;50.788;12.904;2023-03-01T12:12:41;26.83;;;11.35;;
72037;SDS011;59900;50.788;12.904;2023-03-01T12:16:00;27.85;;;11.27;;
72037;SDS011;59900;50.788;12.904;2023-03-01T12:21:42;26.37;;;11.03;;
72037;SDS011;59900;50.788;12.904;2023-03-01T12:30:55;22.83;;;11.13;;
72037;SDS011;59900;50.788;12.904;2023-03-01T12:33:28;25.05;;;10.55;;
72037;SDS011;59900;50.788;12.904;2023-03-01T12:43:00;25.40;;;11.57;;
72037;SDS011;59900;50.788;12.904;2023-03-01T12:45:32;25.08;;;11.57;;
72037;SDS011;59900;50.788;12.904;2023-03-01T12:48:28;23.98;;;11.77;;
72037;SDS011;59900;50.788;12.904;2023-03-01T12:51:03;23.97;;;11.63;;
72037;SDS011;59900;50.788;12.904;2023-03-01T12:53:34;25.65;;;11.40;;
72037;SDS011;59900;50.788;12.904;2023-03-01T12:56:05;25.48;;;11.38;;
72037;SDS011;59900;50.788;12.904;2023-03-01T12:58:47;28.52;;;12.75;;
72037;SDS011;59900;50.788;12.904;2023-03-01T13:01:26;28.02;;;12.48;;
72037;SDS011;59900;50.788;12.904;2023-03-01T13:04:12;27.73;;;12.53;;
72037;SDS011;59900;50.788;12.904;2023-03-01T13:06:42;26.92;;;12.20;;
72037;SDS011;59900;50.788;12.904;2023-03-01T13:15:17;25.80;;;11.93;;
72037;SDS011;59900;50.788;12.904;2023-03-01T13:17:51;25.23;;;12.70;;
72037;SDS011;59900;50.788;12.904;2023-03-01T13:20:23;27.83;;;13.00;;
72037;SDS011;59900;50.788;12.904;2023-03-01T13:23:03;26.83;;;12.85;;
72037;SDS011;59900;50.788;12.904;2023-03-01T13:25:31;27.75;;;13.27;;
72037;SDS011;59900;50.788;12.904;2023-03-01T13:28:32;26.90;;;12.60;;
72037;SDS011;59900;50.788;12.904;2023-03-01T13:31:01;25.77;;;12.65;;
72037;SDS011;59900;50.788;12.904;2023-03-01T13:35:56;28.80;;;12.80;;
72037;SDS011;59900;50.788;12.904;2023-03-01T13:38:39;25.52;;;12.50;;
72037;SDS011;59900;50.788;12.904;2023-03-01T13:42:25;27.73;;;12.32;;
72037;SDS011;59900;50.788;12.904;2023-03-01T13:44:24;29.13;;;12.27;;
72037;SDS011;59900;50.788;12.904;2023-03-01T13:47:13;27.08;;;12.90;;
72037;SDS011;59900;50.788;12.904;2023-03-01T13:53:02;26.60;;;13.23;;
72037;SDS011;59900;50.788;12.904;2023-03-01T13:55:14;26.27;;;12.93;;
72037;SDS011;59900;50.788;12.904;2023-03-01T13:57:45;28.90;;;12.52;;
72037;SDS011;59900;50.788;12.904;2023-03-01T14:00:29;30.13;;;13.20;;
72037;SDS011;59900;50.788;12.904;2023-03-01T14:03:08;26.53;;;13.23;;
72037;SDS011;59900;50.788;12.904;2023-03-01T14:05:42;24.83;;;12.57;;
72037;SDS011;59900;50.788;12.904;2023-03-01T14:08:22;24.30;;;13.32;;
72037;SDS011;59900;50.788;12.904;2023-03-01T14:13:34;24.88;;;12.45;;
72037;SDS011;59900;50.788;12.904;2023-03-01T14:16:15;26.23;;;12.60;;
72037;SDS011;59900;50.788;12.904;2023-03-01T14:19:23;26.98;;;12.65;;
72037;SDS011;59900;50.788;12.904;2023-03-01T14:24:57;22.55;;;12.20;;
72037;SDS011;59900;50.788;12.904;2023-03-01T14:27:26;26.98;;;13.00;;
72037;SDS011;59900;50.788;12.904;2023-03-01T14:29:58;24.27;;;12.50;;
72037;SDS011;59900;50.788;12.904;2023-03-01T14:32:27;25.88;;;12.85;;
72037;SDS011;59900;50.788;12.904;2023-03-01T14:34:54;24.02;;;13.07;;
72037;SDS011;59900;50.788;12.904;2023-03-01T14:37:22;24.95;;;12.68;;
72037;SDS011;59900;50.788;12.904;2023-03-01T14:39:51;24.83;;;12.82;;
72037;SDS011;59900;50.788;12.904;2023-03-01T14:42:17;24.33;;;12.40;;
72037;SDS011;59900;50.788;12.904;2023-03-01T14:44:45;27.17;;;13.15;;
72037;SDS011;59900;50.788;12.904;2023-03-01T14:47:14;26.98;;;13.57;;
72037;SDS011;59900;50.788;12.904;2023-03-01T14:49:44;23.40;;;12.00;;
72037;SDS011;59900;50.788;12.904;2023-03-01T14:52:18;25.00;;;12.60;;
72037;SDS011;59900;50.788;12.904;2023-03-01T14:54:46;25.60;;;12.95;;
72037;SDS011;59900;50.788;12.904;2023-03-01T14:57:15;24.55;;;13.35;;
72037;SDS011;59900;50.788;12.904;2023-03-01T14:59:42;23.90;;;12.27;;
72037;SDS011;59900;50.788;12.904;2023-03-01T15:02:11;22.92;;;12.43;;
72037;SDS011;59900;50.788;12.904;2023-03-01T15:04:42;26.23;;;12.15;;
72037;SDS011;59900;50.788;12.904;2023-03-01T15:07:09;30.27;;;16.40;;
72037;SDS011;59900;50.788;12.904;2023-03-01T15:09:38;27.70;;;13.15;;
72037;SDS011;59900;50.788;12.904;2023-03-01T15:14:59;23.90;;;12.60;;
72037;SDS011;59900;50.788;12.904;2023-03-01T15:20:13;25.23;;;12.40;;
72037;SDS011;59900;50.788;12.904;2023-03-01T15:22:44;23.13;;;12.10;;
72037;SDS011;59900;50.788;12.904;2023-03-01T15:25:14;24.27;;;12.43;;
72037;SDS011;59900;50.788;12.904;2023-03-01T15:27:44;22.80;;;12.50;;
72037;SDS011;59900;50.788;12.904;2023-03-01T15:30:25;23.75;;;12.00;;
72037;SDS011;59900;50.788;12.904;2023-03-01T15:35:45;23.10;;;12.60;;
72037;SDS011;59900;50.788;12.904;2023-03-01T15:38:35;24.35;;;11.93;;
72037;SDS011;59900;50.788;12.904;2023-03-01T15:41:23;25.15;;;12.93;;
72037;SDS011;59900;50.788;12.904;2023-03-01T15:43:59;22.85;;;11.98;;
72037;SDS011;59900;50.788;12.904;2023-03-01T15:46:32;23.93;;;12.23;;
72037;SDS011;59900;50.788;12.904;2023-03-01T15:49:05;21.95;;;12.13;;